Time,TemperatureF,DewpointF,PressureIn,WindDirection,WindDirectionDegrees,WindSpeedMPH,WindSpeedGustMPH,Humidity,HourlyPrecipIn,Conditions,Clouds,dailyrainin,SoftwareType,DateUTC
2013-06-21 00:01:00,55.4,44.6,29.96,West,270,4.5,4.9,67,0.00,,,0.00,WUHU216HW,2013-06-21 07:01:00,
2013-06-21 00:06:00,55.4,45.1,29.96,WSW,248,3.8,5.1,68,0.00,,,0.00,WUHU216HW,2013-06-21 07:06:00,
2013-06-21 00:11:00,55.3,44.9,29.96,WSW,248,2.0,5.1,68,0.00,,,0.00,WUHU216HW,2013-06-21 07:11:00,
2013-06-21 00:16:00,55.1,45.1,29.97,West,270,3.1,4.7,69,0.00,,,0.00,WUHU216HW,2013-06-21 07:16:00,
2013-06-21 00:21:00,55.1,45.1,29.96,SW,225,2.5,4.7,69,0.00,,,0.00,WUHU216HW,2013-06-21 07:21:00,
2013-06-21 00:26:00,55.1,45.1,29.96,WSW,248,4.7,6.0,69,0.00,,,0.00,WUHU216HW,2013-06-21 07:26:00,
2013-06-21 00:31:00,54.9,45.4,29.96,WSW,248,5.6,6.0,70,0.00,,,0.00,WUHU216HW,2013-06-21 07:31:00,
2013-06-21 00:36:00,54.7,45.6,29.96,West,270,2.9,5.6,71,0.00,,,0.00,WUHU216HW,2013-06-21 07:36:00,
2013-06-21 00:41:00,54.7,45.9,29.96,WNW,293,4.7,4.9,72,0.00,,,0.00,WUHU216HW,2013-06-21 07:41:00,
2013-06-21 00:46:00,54.5,45.7,29.96,West,270,4.0,5.1,72,0.00,,,0.00,WUHU216HW,2013-06-21 07:46:00,
2013-06-21 00:51:00,54.5,45.7,29.96,WSW,248,3.8,5.1,72,0.00,,,0.00,WUHU216HW,2013-06-21 07:51:00,
2013-06-21 00:56:00,54.4,45.6,29.96,West,270,5.1,5.1,72,0.00,,,0.00,WUHU216HW,2013-06-21 07:56:00,
2013-06-21 01:01:00,54.4,45.9,29.96,WSW,248,3.8,6.7,73,0.00,,,0.00,WUHU216HW,2013-06-21 08:01:00,
2013-06-21 01:06:00,54.4,45.9,29.96,WSW,248,5.8,6.7,73,0.00,,,0.00,WUHU216HW,2013-06-21 08:06:00,
2013-06-21 01:11:00,54.2,45.7,29.96,WSW,248,3.8,6.9,73,0.00,,,0.00,WUHU216HW,2013-06-21 08:11:00,
2013-06-21 01:16:00,54.2,46.1,29.96,West,270,3.1,6.9,74,0.00,,,0.00,WUHU216HW,2013-06-21 08:16:00,
2013-06-21 01:21:00,54.0,45.9,29.96,SW,225,3.4,5.6,74,0.00,,,0.00,WUHU216HW,2013-06-21 08:21:00,
2013-06-21 01:26:00,54.0,45.9,29.96,SW,225,4.0,5.6,74,0.00,,,0.00,WUHU216HW,2013-06-21 08:26:00,
2013-06-21 01:31:00,53.8,45.7,29.96,WSW,248,4.7,5.6,74,0.00,,,0.00,WUHU216HW,2013-06-21 08:31:00,
2013-06-21 01:36:00,53.8,45.7,29.96,WSW,248,4.5,5.4,74,0.00,,,0.00,WUHU216HW,2013-06-21 08:36:00,
2013-06-21 01:41:00,53.6,45.9,29.96,SSE,158,6.3,6.3,75,0.00,,,0.00,WUHU216HW,2013-06-21 08:41:00,
2013-06-21 01:46:00,53.6,45.9,29.96,SW,225,2.5,8.1,75,0.00,,,0.00,WUHU216HW,2013-06-21 08:46:00,
2013-06-21 01:51:00,53.6,45.9,29.96,WSW,248,3.6,8.1,75,0.00,,,0.00,WUHU216HW,2013-06-21 08:51:00,
2013-06-21 01:56:00,53.6,45.9,29.96,SW,225,1.8,5.8,75,0.00,,,0.00,WUHU216HW,2013-06-21 08:56:00,
2013-06-21 02:01:00,53.5,45.7,29.96,SW,225,2.0,5.8,75,0.00,,,0.00,WUHU216HW,2013-06-21 09:01:00,
2013-06-21 02:06:00,53.5,45.7,29.96,SW,225,1.8,4.3,75,0.00,,,0.00,WUHU216HW,2013-06-21 09:06:00,
2013-06-21 02:11:00,53.5,45.7,29.96,SSW,203,2.7,4.7,75,0.00,,,0.00,WUHU216HW,2013-06-21 09:11:00,
2013-06-21 02:16:00,53.3,45.2,29.95,WSW,248,2.2,4.7,74,0.00,,,0.00,WUHU216HW,2013-06-21 09:16:00,
2013-06-21 02:21:00,53.3,45.2,29.95,West,270,2.0,3.6,74,0.00,,,0.00,WUHU216HW,2013-06-21 09:21:00,
2013-06-21 02:26:00,53.1,45.0,29.95,WSW,248,2.0,2.7,74,0.00,,,0.00,WUHU216HW,2013-06-21 09:26:00,
2013-06-21 02:30:00,53.1,45.0,29.95,WSW,248,1.1,2.5,74,0.00,,,0.00,WUHU216HW,2013-06-21 09:30:00,
2013-06-21 02:36:00,52.9,44.6,29.95,SSW,203,1.1,1.3,73,0.00,,,0.00,WUHU216HW,2013-06-21 09:36:00,
2013-06-21 02:40:00,52.9,44.6,29.95,SSE,158,1.6,1.6,73,0.00,,,0.00,WUHU216HW,2013-06-21 09:40:00,
2013-06-21 02:45:00,52.7,44.4,29.95,SSW,203,1.1,2.5,73,0.00,,,0.00,WUHU216HW,2013-06-21 09:45:00,
2013-06-21 02:50:00,52.6,44.2,29.95,SSE,158,1.3,2.5,73,0.00,,,0.00,WUHU216HW,2013-06-21 09:50:00,
2013-06-21 02:55:00,52.4,43.7,29.95,SE,135,1.8,1.8,72,0.00,,,0.00,WUHU216HW,2013-06-21 09:55:00,
2013-06-21 03:00:00,52.2,43.5,29.95,SSE,158,1.8,2.0,72,0.00,,,0.00,WUHU216HW,2013-06-21 10:00:00,
2013-06-21 03:05:00,51.8,43.2,29.95,SSE,158,1.8,2.0,72,0.00,,,0.00,WUHU216HW,2013-06-21 10:05:00,
2013-06-21 03:10:00,51.7,43.0,29.95,South,180,1.6,2.0,72,0.00,,,0.00,WUHU216HW,2013-06-21 10:10:00,
2013-06-21 03:15:00,51.5,42.9,29.94,SSW,203,1.6,1.8,72,0.00,,,0.00,WUHU216HW,2013-06-21 10:15:00,
2013-06-21 03:20:00,51.5,42.9,29.94,South,180,1.3,1.8,72,0.00,,,0.00,WUHU216HW,2013-06-21 10:20:00,
2013-06-21 03:25:00,51.3,42.9,29.94,SSE,158,2.2,2.2,73,0.00,,,0.00,WUHU216HW,2013-06-21 10:25:00,
2013-06-21 03:30:00,51.1,42.8,29.94,South,180,1.8,2.2,73,0.00,,,0.00,WUHU216HW,2013-06-21 10:30:00,
2013-06-21 03:35:00,51.1,42.5,29.94,SSE,158,1.3,2.2,72,0.00,,,0.00,WUHU216HW,2013-06-21 10:35:00,
2013-06-21 03:40:00,50.8,42.1,29.94,SSE,158,1.6,2.2,72,0.00,,,0.00,WUHU216HW,2013-06-21 10:40:00,
2013-06-21 03:45:00,50.8,42.1,29.94,South,180,1.6,1.8,72,0.00,,,0.00,WUHU216HW,2013-06-21 10:45:00,
2013-06-21 03:50:00,50.6,42.0,29.94,SE,135,1.1,1.8,72,0.00,,,0.00,WUHU216HW,2013-06-21 10:50:00,
2013-06-21 03:55:00,50.4,41.8,29.94,SE,135,0.7,1.3,72,0.00,,,0.00,WUHU216HW,2013-06-21 10:55:00,
2013-06-21 04:00:00,50.0,41.4,29.94,SE,135,0.9,1.1,72,0.00,,,0.00,WUHU216HW,2013-06-21 11:00:00,
2013-06-21 04:05:00,50.0,41.4,29.94,SE,135,0.4,1.1,72,0.00,,,0.00,WUHU216HW,2013-06-21 11:05:00,
2013-06-21 04:10:00,49.9,41.2,29.94,SE,135,0.0,0.9,72,0.00,,,0.00,WUHU216HW,2013-06-21 11:10:00,
2013-06-21 04:15:00,49.7,41.1,29.94,SE,135,0.7,0.7,72,0.00,,,0.00,WUHU216HW,2013-06-21 11:15:00,
2013-06-21 04:20:00,49.7,41.1,29.94,SE,135,0.2,0.7,72,0.00,,,0.00,WUHU216HW,2013-06-21 11:20:00,
2013-06-21 04:25:00,49.5,40.9,29.94,SE,135,0.0,0.7,72,0.00,,,0.00,WUHU216HW,2013-06-21 11:25:00,
2013-06-21 04:30:00,49.3,40.7,29.94,SE,135,0.7,0.7,72,0.00,,,0.00,WUHU216HW,2013-06-21 11:30:00,
2013-06-21 04:35:00,49.3,40.7,29.94,SE,135,0.4,1.1,72,0.00,,,0.00,WUHU216HW,2013-06-21 11:35:00,
2013-06-21 04:40:00,49.1,40.5,29.94,SE,135,1.1,1.1,72,0.00,,,0.00,WUHU216HW,2013-06-21 11:40:00,
2013-06-21 04:45:00,49.0,40.3,29.94,SE,135,0.9,1.1,72,0.00,,,0.00,WUHU216HW,2013-06-21 11:45:00,
2013-06-21 04:50:00,49.0,40.3,29.94,SE,135,1.1,1.1,72,0.00,,,0.00,WUHU216HW,2013-06-21 11:50:00,
2013-06-21 04:55:00,48.8,40.2,29.94,SE,135,0.0,1.1,72,0.00,,,0.00,WUHU216HW,2013-06-21 11:55:00,
2013-06-21 05:00:00,48.6,40.0,29.94,SE,135,0.7,0.9,72,0.00,,,0.00,WUHU216HW,2013-06-21 12:00:00,
2013-06-21 05:05:00,48.6,40.0,29.94,SE,135,0.0,1.1,72,0.00,,,0.00,WUHU216HW,2013-06-21 12:05:00,
2013-06-21 05:10:00,48.4,39.8,29.94,SE,135,0.2,1.1,72,0.00,,,0.00,WUHU216HW,2013-06-21 12:10:00,
2013-06-21 05:15:00,48.2,39.9,29.94,SE,135,0.9,0.9,73,0.00,,,0.00,WUHU216HW,2013-06-21 12:15:00,
2013-06-21 05:20:00,48.2,39.9,29.94,SE,135,0.4,1.1,73,0.00,,,0.00,WUHU216HW,2013-06-21 12:20:00,
2013-06-21 05:25:00,48.2,39.9,29.94,ESE,113,1.3,1.3,73,0.00,,,0.00,WUHU216HW,2013-06-21 12:25:00,
2013-06-21 05:30:00,48.1,39.8,29.94,ESE,113,0.7,1.3,73,0.00,,,0.00,WUHU216HW,2013-06-21 12:30:00,
2013-06-21 05:35:00,47.9,39.6,29.94,ESE,113,0.9,1.3,73,0.00,,,0.00,WUHU216HW,2013-06-21 12:35:00,
2013-06-21 05:40:00,47.9,39.6,29.95,SSE,158,1.8,1.8,73,0.00,,,0.00,WUHU216HW,2013-06-21 12:40:00,
2013-06-21 05:45:00,47.9,39.6,29.95,SE,135,1.6,1.8,73,0.00,,,0.00,WUHU216HW,2013-06-21 12:45:00,
2013-06-21 05:50:00,47.7,39.4,29.94,SE,135,1.8,1.8,73,0.00,,,0.00,WUHU216HW,2013-06-21 12:50:00,
2013-06-21 05:55:00,47.7,39.4,29.95,ESE,113,1.1,1.8,73,0.00,,,0.00,WUHU216HW,2013-06-21 12:55:00,
2013-06-21 06:00:00,47.5,39.6,29.95,SE,135,1.1,1.6,74,0.00,,,0.00,WUHU216HW,2013-06-21 13:00:00,
2013-06-21 06:05:00,47.5,39.6,29.95,ESE,113,1.8,1.8,74,0.00,,,0.00,WUHU216HW,2013-06-21 13:05:00,
2013-06-21 06:10:00,47.5,39.6,29.95,ESE,113,0.9,1.8,74,0.00,,,0.00,WUHU216HW,2013-06-21 13:10:00,
2013-06-21 06:15:00,47.7,40.2,29.95,ESE,113,0.7,1.3,75,0.00,,,0.00,WUHU216HW,2013-06-21 13:15:00,
2013-06-21 06:20:00,47.9,40.2,29.95,ESE,113,0.9,1.1,75,0.00,,,0.00,WUHU216HW,2013-06-21 13:20:00,
2013-06-21 06:25:00,47.9,40.2,29.95,East,90,1.3,1.6,75,0.00,,,0.00,WUHU216HW,2013-06-21 13:25:00,
2013-06-21 06:30:00,48.2,40.6,29.95,East,90,0.0,1.6,75,0.00,,,0.00,WUHU216HW,2013-06-21 13:30:00,
2013-06-21 06:35:00,48.6,41.0,29.95,East,90,0.0,0.9,75,0.00,,,0.00,WUHU216HW,2013-06-21 13:35:00,
2013-06-21 06:40:00,49.0,41.3,29.95,East,90,0.4,0.4,75,0.00,,,0.00,WUHU216HW,2013-06-21 13:40:00,
2013-06-21 06:45:00,49.5,41.9,29.95,East,90,0.4,0.4,75,0.00,,,0.00,WUHU216HW,2013-06-21 13:45:00,
2013-06-21 06:50:00,50.4,43.1,29.95,East,90,0.0,0.4,76,0.00,,,0.00,WUHU216HW,2013-06-21 13:50:00,
2013-06-21 06:55:00,51.3,44.0,29.95,East,90,0.2,0.4,76,0.00,,,0.00,WUHU216HW,2013-06-21 13:55:00,
2013-06-21 07:00:00,52.2,44.9,29.95,East,90,0.0,0.4,76,0.00,,,0.00,WUHU216HW,2013-06-21 14:00:00,
2013-06-21 07:06:00,53.5,46.1,29.96,East,90,0.0,0.2,76,0.00,,,0.00,WUHU216HW,2013-06-21 14:06:00,
2013-06-21 07:11:00,54.7,47.3,29.96,East,90,0.7,0.7,76,0.00,,,0.00,WUHU216HW,2013-06-21 14:11:00,
2013-06-21 07:16:00,55.8,48.0,29.96,NE,45,1.8,1.8,75,0.00,,,0.00,WUHU216HW,2013-06-21 14:16:00,
2013-06-21 07:21:00,57.1,48.4,29.96,East,90,1.1,1.8,73,0.00,,,0.00,WUHU216HW,2013-06-21 14:21:00,
2013-06-21 07:26:00,58.3,49.7,29.96,ESE,113,1.3,1.8,73,0.00,,,0.00,WUHU216HW,2013-06-21 14:26:00,
2013-06-21 07:31:00,59.4,50.0,29.96,SSE,158,0.9,2.5,71,0.00,,,0.00,WUHU216HW,2013-06-21 14:31:00,
2013-06-21 07:36:00,60.5,50.3,29.96,ESE,113,2.0,2.5,69,0.00,,,0.00,WUHU216HW,2013-06-21 14:36:00,
2013-06-21 07:41:00,61.7,50.7,29.96,ESE,113,0.2,2.0,67,0.00,,,0.00,WUHU216HW,2013-06-21 14:41:00,
2013-06-21 07:46:00,62.8,50.4,29.96,East,90,0.7,1.8,64,0.00,,,0.00,WUHU216HW,2013-06-21 14:46:00,
2013-06-21 07:51:00,63.9,51.0,29.96,East,90,0.4,1.3,63,0.00,,,0.00,WUHU216HW,2013-06-21 14:51:00,
2013-06-21 07:56:00,64.8,51.5,29.96,NNE,23,0.7,1.1,62,0.00,,,0.00,WUHU216HW,2013-06-21 14:56:00,
2013-06-21 08:01:00,65.3,51.1,29.96,WSW,248,1.8,2.7,60,0.00,,,0.00,WUHU216HW,2013-06-21 15:01:00,
2013-06-21 08:07:00,66.2,52.0,29.96,West,270,1.8,2.7,60,0.00,,,0.00,WUHU216HW,2013-06-21 15:07:00,
2013-06-21 08:12:00,67.0,51.2,29.97,SW,225,1.8,3.6,57,0.00,,,0.00,WUHU216HW,2013-06-21 15:12:00,
2013-06-21 08:17:00,67.7,50.9,29.96,West,270,1.8,3.6,55,0.00,,,0.00,WUHU216HW,2013-06-21 15:17:00,
2013-06-21 08:22:00,67.9,50.0,29.96,WSW,248,1.6,3.1,53,0.00,,,0.00,WUHU216HW,2013-06-21 15:22:00,
2013-06-21 08:27:00,67.9,50.0,29.96,West,270,1.8,3.4,53,0.00,,,0.00,WUHU216HW,2013-06-21 15:27:00,
2013-06-21 08:32:00,68.2,50.4,29.97,WSW,248,0.4,3.4,53,0.00,,,0.00,WUHU216HW,2013-06-21 15:32:00,
2013-06-21 08:37:00,68.8,50.0,29.96,SSW,203,2.7,3.4,51,0.00,,,0.00,WUHU216HW,2013-06-21 15:37:00,
2013-06-21 08:42:00,69.5,50.6,29.96,West,270,2.7,3.4,51,0.00,,,0.00,WUHU216HW,2013-06-21 15:42:00,
2013-06-21 08:47:00,69.8,51.0,29.97,North,0,0.9,3.4,51,0.00,,,0.00,WUHU216HW,2013-06-21 15:47:00,
2013-06-21 08:52:00,70.9,52.4,29.96,West,270,1.3,2.5,52,0.00,,,0.00,WUHU216HW,2013-06-21 15:52:00,
2013-06-21 08:57:00,71.5,52.4,29.96,SSE,158,1.6,2.5,51,0.00,,,0.00,WUHU216HW,2013-06-21 15:57:00,
2013-06-21 09:02:00,72.0,51.8,29.96,SSE,158,0.7,2.5,49,0.00,,,0.00,WUHU216HW,2013-06-21 16:02:00,
2013-06-21 09:07:00,72.7,52.4,29.96,SSE,158,0.7,2.5,49,0.00,,,0.00,WUHU216HW,2013-06-21 16:07:00,
2013-06-21 09:12:00,73.1,51.6,29.96,SW,225,1.8,3.1,47,0.00,,,0.00,WUHU216HW,2013-06-21 16:12:00,
2013-06-21 09:17:00,72.9,51.4,29.96,WNW,293,1.8,3.1,47,0.00,,,0.00,WUHU216HW,2013-06-21 16:17:00,
2013-06-21 09:22:00,72.7,51.9,29.96,WSW,248,0.2,1.8,48,0.00,,,0.00,WUHU216HW,2013-06-21 16:22:00,
2013-06-21 09:27:00,72.5,51.0,29.96,WSW,248,2.5,4.5,47,0.00,,,0.00,WUHU216HW,2013-06-21 16:27:00,
2013-06-21 09:32:00,72.5,51.0,29.95,West,270,1.1,4.5,47,0.00,,,0.00,WUHU216HW,2013-06-21 16:32:00,
2013-06-21 09:37:00,72.7,51.2,29.96,North,0,1.8,3.1,47,0.00,,,0.00,WUHU216HW,2013-06-21 16:37:00,
2013-06-21 09:42:00,73.1,51.6,29.95,SW,225,1.3,2.9,47,0.00,,,0.00,WUHU216HW,2013-06-21 16:42:00,
2013-06-21 09:47:00,73.3,50.5,29.95,North,0,1.1,2.2,45,0.00,,,0.00,WUHU216HW,2013-06-21 16:47:00,
2013-06-21 09:52:00,73.6,50.9,29.95,WNW,293,0.9,2.2,45,0.00,,,0.00,WUHU216HW,2013-06-21 16:52:00,
2013-06-21 09:57:00,73.8,51.0,29.95,SSE,158,1.8,2.7,45,0.00,,,0.00,WUHU216HW,2013-06-21 16:57:00,
2013-06-21 10:02:00,74.0,50.6,29.95,NW,315,1.8,3.1,44,0.00,,,0.00,WUHU216HW,2013-06-21 17:02:00,
2013-06-21 10:07:00,74.0,50.0,29.95,SW,225,2.2,3.4,43,0.00,,,0.00,WUHU216HW,2013-06-21 17:07:00,
2013-06-21 10:12:00,74.3,51.0,29.95,NW,315,1.3,4.7,44,0.00,,,0.00,WUHU216HW,2013-06-21 17:12:00,
2013-06-21 10:17:00,74.5,50.5,29.95,NW,315,0.9,4.7,43,0.00,,,0.00,WUHU216HW,2013-06-21 17:17:00,
2013-06-21 10:22:00,74.7,50.0,29.95,SW,225,3.6,3.6,42,0.00,,,0.00,WUHU216HW,2013-06-21 17:22:00,
2013-06-21 10:28:00,74.7,49.4,29.95,WNW,293,4.0,4.0,41,0.00,,,0.00,WUHU216HW,2013-06-21 17:28:00,
2013-06-21 10:34:00,75.1,49.8,29.95,North,0,1.8,4.0,41,0.00,,,0.00,WUHU216HW,2013-06-21 17:34:00,
2013-06-21 10:39:00,75.4,49.5,29.95,NNW,338,4.0,4.0,40,0.00,,,0.00,WUHU216HW,2013-06-21 17:39:00,
2013-06-21 10:44:00,75.4,49.5,29.95,West,270,4.3,4.3,40,0.00,,,0.00,WUHU216HW,2013-06-21 17:44:00,
2013-06-21 10:46:00,75.4,49.5,29.96,West,270,1.8,4.3,40,0.00,,,0.00,WUHU216HW,2013-06-21 17:46:00,
2013-06-21 10:48:00,75.4,49.5,29.96,SSE,158,2.9,4.3,40,0.00,,,0.00,WUHU216HW,2013-06-21 17:48:00,
2013-06-21 10:53:00,76.0,51.2,29.96,WSW,248,3.6,4.5,42,0.00,,,0.00,WUHU216HW,2013-06-21 17:53:00,
2013-06-21 10:58:00,76.7,50.6,29.96,WSW,248,4.0,4.5,40,0.00,,,0.00,WUHU216HW,2013-06-21 17:58:00,
2013-06-21 11:03:00,77.0,50.9,29.96,West,270,1.8,4.3,40,0.00,,,0.00,WUHU216HW,2013-06-21 18:03:00,
2013-06-21 11:08:00,77.4,49.8,29.95,WNW,293,2.5,6.3,38,0.00,,,0.00,WUHU216HW,2013-06-21 18:08:00,
2013-06-21 11:13:00,77.6,49.9,29.95,SSW,203,4.7,6.3,38,0.00,,,0.00,WUHU216HW,2013-06-21 18:13:00,
2013-06-21 11:18:00,77.9,50.2,29.96,SSW,203,2.5,5.4,38,0.00,,,0.00,WUHU216HW,2013-06-21 18:18:00,
2013-06-21 11:23:00,78.5,50.7,29.96,SW,225,3.1,3.6,38,0.00,,,0.00,WUHU216HW,2013-06-21 18:23:00,
2013-06-21 11:24:00,78.5,50.7,29.96,NW,315,1.6,3.6,38,0.00,,,0.00,WUHU216HW,2013-06-21 18:24:00,
2013-06-21 11:29:00,78.8,51.0,29.96,West,270,4.7,4.9,38,0.00,,,0.00,WUHU216HW,2013-06-21 18:29:00,
2013-06-21 11:34:00,79.2,50.6,29.96,WNW,293,3.8,4.9,37,0.00,,,0.00,WUHU216HW,2013-06-21 18:34:00,
2013-06-21 11:39:00,79.6,50.9,29.95,WNW,293,1.8,4.7,37,0.00,,,0.00,WUHU216HW,2013-06-21 18:39:00,
2013-06-21 11:44:00,79.9,49.7,29.95,WNW,293,4.7,4.7,35,0.00,,,0.00,WUHU216HW,2013-06-21 18:44:00,
2013-06-21 11:45:00,79.9,49.7,29.96,WNW,293,4.3,6.0,35,0.00,,,0.00,WUHU216HW,2013-06-21 18:45:00,
2013-06-21 11:50:00,79.9,49.7,29.95,WNW,293,3.1,6.0,35,0.00,,,0.00,WUHU216HW,2013-06-21 18:50:00,
2013-06-21 11:55:00,79.9,49.7,29.95,West,270,5.1,5.1,35,0.00,,,0.00,WUHU216HW,2013-06-21 18:55:00,
2013-06-21 12:00:00,80.1,49.9,29.95,SW,225,3.6,5.1,35,0.00,,,0.00,WUHU216HW,2013-06-21 19:00:00,
2013-06-21 12:05:00,80.6,50.3,29.95,NNW,338,0.4,5.1,35,0.00,,,0.00,WUHU216HW,2013-06-21 19:05:00,
2013-06-21 12:10:00,81.2,50.8,29.95,WSW,248,3.6,5.4,35,0.00,,,0.00,WUHU216HW,2013-06-21 19:10:00,
2013-06-21 12:15:00,81.5,50.3,29.95,West,270,0.7,5.4,34,0.00,,,0.00,WUHU216HW,2013-06-21 19:15:00,
2013-06-21 12:20:00,82.1,50.0,29.95,SSW,203,1.1,5.4,33,0.00,,,0.00,WUHU216HW,2013-06-21 19:20:00,
2013-06-21 12:25:00,82.8,51.4,29.95,West,270,2.2,5.6,34,0.00,,,0.00,WUHU216HW,2013-06-21 19:25:00,
2013-06-21 12:30:00,82.8,49.8,29.95,North,0,2.5,5.6,32,0.00,,,0.00,WUHU216HW,2013-06-21 19:30:00,
2013-06-21 12:35:00,82.8,49.8,29.95,WNW,293,5.4,5.4,32,0.00,,,0.00,WUHU216HW,2013-06-21 19:35:00,
2013-06-21 12:40:00,82.8,49.8,29.95,West,270,7.2,7.2,32,0.00,,,0.00,WUHU216HW,2013-06-21 19:40:00,
2013-06-21 12:43:00,82.8,49.8,29.95,SW,225,2.9,7.2,32,0.00,,,0.00,WUHU216HW,2013-06-21 19:43:00,
2013-06-21 12:48:00,83.0,49.1,29.95,West,270,3.6,7.2,31,0.00,,,0.00,WUHU216HW,2013-06-21 19:48:00,
2013-06-21 12:53:00,83.3,50.3,29.95,West,270,1.1,6.5,32,0.00,,,0.00,WUHU216HW,2013-06-21 19:53:00,
2013-06-21 12:58:00,83.9,50.8,29.95,West,270,1.1,6.3,32,0.00,,,0.00,WUHU216HW,2013-06-21 19:58:00,
2013-06-21 13:03:00,84.2,50.3,29.95,West,270,2.2,6.3,31,0.00,,,0.00,WUHU216HW,2013-06-21 20:03:00,
2013-06-21 13:04:00,84.2,50.3,29.94,West,270,4.3,6.3,31,0.00,,,0.00,WUHU216HW,2013-06-21 20:04:00,
2013-06-21 13:08:00,84.2,48.4,29.95,WSW,248,2.5,6.5,29,0.00,,,0.00,WUHU216HW,2013-06-21 20:08:00,
2013-06-21 13:11:00,84.2,49.5,29.94,NW,315,3.6,6.5,30,0.00,,,0.00,WUHU216HW,2013-06-21 20:11:00,
2013-06-21 13:13:00,84.2,49.5,29.94,West,270,7.6,7.6,30,0.00,,,0.00,WUHU216HW,2013-06-21 20:13:00,
2013-06-21 13:18:00,84.2,48.4,29.94,NW,315,7.6,8.5,29,0.00,,,0.00,WUHU216HW,2013-06-21 20:18:00,
2013-06-21 13:23:00,84.2,51.1,29.94,SW,225,7.2,8.7,32,0.00,,,0.00,WUHU216HW,2013-06-21 20:23:00,
2013-06-21 13:28:00,84.8,51.6,29.94,SW,225,5.4,8.7,32,0.00,,,0.00,WUHU216HW,2013-06-21 20:28:00,
2013-06-21 13:33:00,85.1,51.1,29.94,WSW,248,4.0,6.9,31,0.00,,,0.00,WUHU216HW,2013-06-21 20:33:00,
2013-06-21 13:38:00,85.5,51.4,29.94,SW,225,3.8,5.8,31,0.00,,,0.00,WUHU216HW,2013-06-21 20:38:00,
2013-06-21 13:44:00,85.9,52.6,29.93,SSW,203,6.7,6.7,32,0.00,,,0.00,WUHU216HW,2013-06-21 20:44:00,
2013-06-21 13:49:00,86.4,52.2,29.93,SW,225,5.4,8.5,31,0.00,,,0.00,WUHU216HW,2013-06-21 20:49:00,
2013-06-21 13:54:00,86.8,52.5,29.93,WSW,248,5.4,8.5,31,0.00,,,0.00,WUHU216HW,2013-06-21 20:54:00,
2013-06-21 13:59:00,86.8,51.7,29.93,WSW,248,6.0,8.5,30,0.00,,,0.00,WUHU216HW,2013-06-21 20:59:00,
2013-06-21 14:03:00,86.9,50.8,29.93,WNW,293,5.1,8.5,29,0.00,,,0.00,WUHU216HW,2013-06-21 21:03:00,
2013-06-21 14:04:00,86.8,50.6,29.92,West,270,4.9,8.5,29,0.00,,,0.00,WUHU216HW,2013-06-21 21:04:00,
2013-06-21 14:09:00,86.9,50.8,29.92,WSW,248,10.1,10.1,29,0.00,,,0.00,WUHU216HW,2013-06-21 21:09:00,
2013-06-21 14:14:00,87.1,51.0,29.92,SE,135,3.1,10.1,29,0.00,,,0.00,WUHU216HW,2013-06-21 21:14:00,
2013-06-21 14:19:00,87.5,51.2,29.92,SSW,203,6.5,12.1,29,0.00,,,0.00,WUHU216HW,2013-06-21 21:19:00,
2013-06-21 14:24:00,88.0,51.7,29.92,SSW,203,4.3,12.1,29,0.00,,,0.00,WUHU216HW,2013-06-21 21:24:00,
2013-06-21 14:29:00,88.6,51.0,29.92,SW,225,2.7,11.0,28,0.00,,,0.00,WUHU216HW,2013-06-21 21:29:00,
2013-06-21 14:34:00,88.6,49.0,29.92,South,180,8.5,8.5,26,0.00,,,0.00,WUHU216HW,2013-06-21 21:34:00,
2013-06-21 14:39:00,88.4,48.8,29.92,WNW,293,7.8,8.9,26,0.00,,,0.00,WUHU216HW,2013-06-21 21:39:00,
2013-06-21 14:44:00,88.0,48.5,29.92,SW,225,7.6,10.5,26,0.00,,,0.00,WUHU216HW,2013-06-21 21:44:00,
2013-06-21 14:49:00,87.5,48.0,29.92,WNW,293,5.4,10.5,26,0.00,,,0.00,WUHU216HW,2013-06-21 21:49:00,
2013-06-21 14:54:00,86.9,46.5,29.92,West,270,7.4,12.1,25,0.00,,,0.00,WUHU216HW,2013-06-21 21:54:00,
2013-06-21 14:59:00,86.8,46.4,29.92,NW,315,7.2,12.1,25,0.00,,,0.00,WUHU216HW,2013-06-21 21:59:00,
2013-06-21 15:04:00,86.4,46.0,29.91,WNW,293,5.4,8.5,25,0.00,,,0.00,WUHU216HW,2013-06-21 22:04:00,
2013-06-21 15:09:00,86.0,46.8,29.92,West,270,10.1,10.1,26,0.00,,,0.00,WUHU216HW,2013-06-21 22:09:00,
2013-06-21 15:14:00,86.0,45.7,29.92,WNW,293,5.8,11.6,25,0.00,,,0.00,WUHU216HW,2013-06-21 22:14:00,
2013-06-21 15:19:00,85.7,45.5,29.92,North,0,3.6,11.6,25,0.00,,,0.00,WUHU216HW,2013-06-21 22:19:00,
2013-06-21 15:24:00,85.3,46.2,29.92,WSW,248,6.0,11.2,26,0.00,,,0.00,WUHU216HW,2013-06-21 22:24:00,
2013-06-21 15:29:00,85.5,45.3,29.92,WNW,293,8.9,11.6,25,0.00,,,0.00,WUHU216HW,2013-06-21 22:29:00,
2013-06-21 15:34:00,85.3,46.2,29.92,West,270,9.2,11.6,26,0.00,,,0.00,WUHU216HW,2013-06-21 22:34:00,
2013-06-21 15:39:00,85.3,46.2,29.92,WNW,293,11.4,11.4,26,0.00,,,0.00,WUHU216HW,2013-06-21 22:39:00,
2013-06-21 15:44:00,85.1,46.0,29.92,West,270,7.6,11.4,26,0.00,,,0.00,WUHU216HW,2013-06-21 22:44:00,
2013-06-21 15:49:00,84.8,45.7,29.91,WNW,293,7.2,11.4,26,0.00,,,0.00,WUHU216HW,2013-06-21 22:49:00,
2013-06-21 15:54:00,84.8,45.7,29.92,NW,315,8.9,10.7,26,0.00,,,0.00,WUHU216HW,2013-06-21 22:54:00,
2013-06-21 15:59:00,84.8,45.7,29.91,West,270,9.2,9.8,26,0.00,,,0.00,WUHU216HW,2013-06-21 22:59:00,
2013-06-21 16:04:00,85.1,46.0,29.91,West,270,9.2,9.8,26,0.00,,,0.00,WUHU216HW,2013-06-21 23:04:00,
2013-06-21 16:09:00,85.5,46.4,29.91,WNW,293,3.1,12.1,26,0.00,,,0.00,WUHU216HW,2013-06-21 23:09:00,
2013-06-21 16:14:00,85.3,45.1,29.91,West,270,9.4,12.1,25,0.00,,,0.00,WUHU216HW,2013-06-21 23:14:00,
2013-06-21 16:19:00,85.0,44.8,29.91,WNW,293,6.3,11.4,25,0.00,,,0.00,WUHU216HW,2013-06-21 23:19:00,
2013-06-21 16:24:00,85.0,45.9,29.91,WNW,293,5.6,11.4,26,0.00,,,0.00,WUHU216HW,2013-06-21 23:24:00,
2013-06-21 16:29:00,85.1,44.9,29.91,WNW,293,7.8,8.9,25,0.00,,,0.00,WUHU216HW,2013-06-21 23:29:00,
2013-06-21 16:34:00,85.3,45.1,29.91,WNW,293,3.4,8.9,25,0.00,,,0.00,WUHU216HW,2013-06-21 23:34:00,
2013-06-21 16:39:00,85.5,45.3,29.91,SSW,203,8.5,12.8,25,0.00,,,0.00,WUHU216HW,2013-06-21 23:39:00,
2013-06-21 16:44:00,85.7,46.5,29.91,West,270,8.5,12.8,26,0.00,,,0.00,WUHU216HW,2013-06-21 23:44:00,
2013-06-21 16:49:00,85.7,45.5,29.91,WSW,248,6.7,9.2,25,0.00,,,0.00,WUHU216HW,2013-06-21 23:49:00,
2013-06-21 16:54:00,85.7,44.4,29.91,WSW,248,3.8,9.2,24,0.00,,,0.00,WUHU216HW,2013-06-21 23:54:00,
2013-06-21 16:59:00,85.9,44.5,29.91,WSW,248,5.4,9.2,24,0.00,,,0.00,WUHU216HW,2013-06-21 23:59:00,
2013-06-21 17:04:00,85.7,44.4,29.91,SW,225,5.4,9.2,24,0.00,,,0.00,WUHU216HW,2013-06-22 00:04:00,
2013-06-21 17:09:00,85.3,42.9,29.91,SSW,203,10.5,10.5,23,0.00,,,0.00,WUHU216HW,2013-06-22 00:09:00,
2013-06-21 17:14:00,85.3,42.9,29.91,West,270,10.5,10.5,23,0.00,,,0.00,WUHU216HW,2013-06-22 00:14:00,
2013-06-21 17:19:00,85.0,42.7,29.91,SSE,158,9.4,11.4,23,0.00,,,0.00,WUHU216HW,2013-06-22 00:19:00,
2013-06-21 17:24:00,84.6,41.3,29.90,South,180,8.5,11.4,22,0.00,,,0.00,WUHU216HW,2013-06-22 00:24:00,
2013-06-21 17:29:00,84.6,42.4,29.90,SW,225,11.0,11.0,23,0.00,,,0.00,WUHU216HW,2013-06-22 00:29:00,
2013-06-21 17:34:00,84.2,41.1,29.90,WSW,248,6.9,11.0,22,0.00,,,0.00,WUHU216HW,2013-06-22 00:34:00,
2013-06-21 17:39:00,83.7,40.6,29.90,WSW,248,4.7,10.5,22,0.00,,,0.00,WUHU216HW,2013-06-22 00:39:00,
2013-06-21 17:44:00,83.3,41.3,29.90,WSW,248,4.9,10.5,23,0.00,,,0.00,WUHU216HW,2013-06-22 00:44:00,
2013-06-21 17:49:00,83.5,42.5,29.90,SW,225,4.7,7.6,24,0.00,,,0.00,WUHU216HW,2013-06-22 00:49:00,
2013-06-21 17:54:00,83.2,42.2,29.90,WNW,293,3.4,7.6,24,0.00,,,0.00,WUHU216HW,2013-06-22 00:54:00,
2013-06-21 17:59:00,83.2,43.3,29.90,SSW,203,4.3,7.6,25,0.00,,,0.00,WUHU216HW,2013-06-22 00:59:00,
2013-06-21 18:04:00,83.2,43.3,29.90,WSW,248,7.6,7.6,25,0.00,,,0.00,WUHU216HW,2013-06-22 01:04:00,
2013-06-21 18:09:00,82.4,42.7,29.91,West,270,6.3,8.9,25,0.00,,,0.00,WUHU216HW,2013-06-22 01:09:00,
2013-06-21 18:14:00,82.3,43.6,29.91,SW,225,7.6,8.9,26,0.00,,,0.00,WUHU216HW,2013-06-22 01:14:00,
2013-06-21 18:19:00,81.9,43.3,29.90,West,270,4.0,8.5,26,0.00,,,0.00,WUHU216HW,2013-06-22 01:19:00,
2013-06-21 18:24:00,81.9,43.3,29.90,SSW,203,6.7,8.5,26,0.00,,,0.00,WUHU216HW,2013-06-22 01:24:00,
2013-06-21 18:29:00,82.1,45.6,29.90,SW,225,6.9,8.5,28,0.00,,,0.00,WUHU216HW,2013-06-22 01:29:00,
2013-06-21 18:34:00,81.7,45.2,29.90,SW,225,3.8,8.5,28,0.00,,,0.00,WUHU216HW,2013-06-22 01:34:00,
2013-06-21 18:39:00,81.0,46.7,29.90,SW,225,2.9,6.3,30,0.00,,,0.00,WUHU216HW,2013-06-22 01:39:00,
2013-06-21 18:44:00,80.8,46.6,29.91,SW,225,4.7,7.6,30,0.00,,,0.00,WUHU216HW,2013-06-22 01:44:00,
2013-06-21 18:49:00,80.6,46.4,29.91,SW,225,6.3,7.6,30,0.00,,,0.00,WUHU216HW,2013-06-22 01:49:00,
2013-06-21 18:54:00,80.3,46.1,29.91,WSW,248,5.4,7.6,30,0.00,,,0.00,WUHU216HW,2013-06-22 01:54:00,
2013-06-21 18:59:00,79.7,46.5,29.91,WSW,248,4.9,6.9,31,0.00,,,0.00,WUHU216HW,2013-06-22 01:59:00,
2013-06-21 19:04:00,79.2,45.9,29.91,SSW,203,5.1,6.3,31,0.00,,,0.00,WUHU216HW,2013-06-22 02:04:00,
2013-06-21 19:09:00,79.0,46.5,29.91,WSW,248,6.3,6.5,32,0.00,,,0.00,WUHU216HW,2013-06-22 02:09:00,
2013-06-21 19:14:00,78.8,46.4,29.91,SW,225,3.6,6.9,32,0.00,,,0.00,WUHU216HW,2013-06-22 02:14:00,
2013-06-21 19:19:00,78.5,46.1,29.91,WSW,248,2.7,8.5,32,0.00,,,0.00,WUHU216HW,2013-06-22 02:19:00,
2013-06-21 19:24:00,77.8,45.5,29.91,WSW,248,6.0,8.5,32,0.00,,,0.00,WUHU216HW,2013-06-22 02:24:00,
2013-06-21 19:29:00,77.4,45.2,29.91,SSE,158,2.5,6.0,32,0.00,,,0.00,WUHU216HW,2013-06-22 02:29:00,
2013-06-21 19:34:00,76.9,45.5,29.91,WSW,248,4.5,9.4,33,0.00,,,0.00,WUHU216HW,2013-06-22 02:34:00,
2013-06-21 19:39:00,76.5,45.2,29.91,SW,225,4.7,9.4,33,0.00,,,0.00,WUHU216HW,2013-06-22 02:39:00,
2013-06-21 19:44:00,76.0,44.6,29.91,SW,225,3.4,6.9,33,0.00,,,0.00,WUHU216HW,2013-06-22 02:44:00,
2013-06-21 19:49:00,75.6,44.4,29.91,WSW,248,3.6,6.0,33,0.00,,,0.00,WUHU216HW,2013-06-22 02:49:00,
2013-06-21 19:54:00,75.2,44.0,29.91,SW,225,5.1,5.8,33,0.00,,,0.00,WUHU216HW,2013-06-22 02:54:00,
2013-06-21 19:59:00,74.9,43.8,29.90,WSW,248,4.3,5.8,33,0.00,,,0.00,WUHU216HW,2013-06-22 02:59:00,
2013-06-21 20:04:00,74.5,43.4,29.91,SSW,203,3.1,5.4,33,0.00,,,0.00,WUHU216HW,2013-06-22 03:04:00,
2013-06-21 20:09:00,73.8,43.5,29.91,WNW,293,3.1,6.7,34,0.00,,,0.00,WUHU216HW,2013-06-22 03:09:00,
2013-06-21 20:14:00,73.3,43.0,29.91,WSW,248,3.4,6.7,34,0.00,,,0.00,WUHU216HW,2013-06-22 03:14:00,
2013-06-21 20:19:00,72.4,43.0,29.91,SW,225,1.6,5.8,35,0.00,,,0.00,WUHU216HW,2013-06-22 03:19:00,
2013-06-21 20:24:00,72.0,43.5,29.91,WSW,248,4.3,5.4,36,0.00,,,0.00,WUHU216HW,2013-06-22 03:24:00,
2013-06-21 20:29:00,71.3,43.6,29.91,WNW,293,2.5,4.3,37,0.00,,,0.00,WUHU216HW,2013-06-22 03:29:00,
2013-06-21 20:34:00,70.7,43.8,29.91,SW,225,5.1,5.1,38,0.00,,,0.00,WUHU216HW,2013-06-22 03:34:00,
2013-06-21 20:39:00,70.2,44.0,29.91,SW,225,2.0,5.4,39,0.00,,,0.00,WUHU216HW,2013-06-22 03:39:00,
2013-06-21 20:44:00,69.5,44.1,29.91,West,270,4.7,5.4,40,0.00,,,0.00,WUHU216HW,2013-06-22 03:44:00,
2013-06-21 20:49:00,68.9,44.3,29.91,WSW,248,2.5,5.1,41,0.00,,,0.00,WUHU216HW,2013-06-22 03:49:00,
2013-06-21 20:54:00,68.2,44.2,29.91,WSW,248,1.8,5.4,42,0.00,,,0.00,WUHU216HW,2013-06-22 03:54:00,
2013-06-21 20:59:00,67.7,44.3,29.91,WSW,248,5.1,6.9,43,0.00,,,0.00,WUHU216HW,2013-06-22 03:59:00,
2013-06-21 21:01:00,67.5,44.1,29.91,NW,315,4.7,7.2,43,0.00,,,0.00,WUHU216HW,2013-06-22 04:01:00,
2013-06-21 21:06:00,67.0,44.3,29.91,WSW,248,2.2,7.2,44,0.00,,,0.00,WUHU216HW,2013-06-22 04:06:00,
2013-06-21 21:11:00,66.4,44.4,29.91,WSW,248,4.9,6.9,45,0.00,,,0.00,WUHU216HW,2013-06-22 04:11:00,
2013-06-21 21:16:00,65.9,45.0,29.91,South,180,4.7,7.2,47,0.00,,,0.00,WUHU216HW,2013-06-22 04:16:00,
2013-06-21 21:21:00,65.3,45.1,29.91,WSW,248,3.4,7.2,48,0.00,,,0.00,WUHU216HW,2013-06-22 04:21:00,
2013-06-21 21:26:00,65.0,45.4,29.91,SW,225,3.4,7.2,49,0.00,,,0.00,WUHU216HW,2013-06-22 04:26:00,
2013-06-21 21:31:00,64.6,45.0,29.91,SW,225,3.6,4.0,49,0.00,,,0.00,WUHU216HW,2013-06-22 04:31:00,
2013-06-21 21:36:00,64.4,45.4,29.91,SW,225,3.4,6.3,50,0.00,,,0.00,WUHU216HW,2013-06-22 04:36:00,
2013-06-21 21:41:00,64.1,45.0,29.91,SW,225,1.8,6.3,50,0.00,,,0.00,WUHU216HW,2013-06-22 04:41:00,
2013-06-21 21:46:00,63.9,44.9,29.91,SW,225,1.1,4.7,50,0.00,,,0.00,WUHU216HW,2013-06-22 04:46:00,
2013-06-21 21:51:00,63.7,45.2,29.91,WSW,248,3.4,4.0,51,0.00,,,0.00,WUHU216HW,2013-06-22 04:51:00,
2013-06-21 21:56:00,63.5,45.6,29.91,WSW,248,2.5,4.0,52,0.00,,,0.00,WUHU216HW,2013-06-22 04:56:00,
2013-06-21 22:01:00,63.4,44.9,29.91,WSW,248,4.3,4.3,51,0.00,,,0.00,WUHU216HW,2013-06-22 05:01:00,
2013-06-21 22:06:00,63.0,45.0,29.91,WSW,248,3.1,4.3,52,0.00,,,0.00,WUHU216HW,2013-06-22 05:06:00,
2013-06-21 22:11:00,62.8,45.4,29.92,WSW,248,1.1,3.8,53,0.00,,,0.00,WUHU216HW,2013-06-22 05:11:00,
2013-06-21 22:16:00,62.5,45.0,29.92,WSW,248,1.1,3.4,53,0.00,,,0.00,WUHU216HW,2013-06-22 05:16:00,
2013-06-21 22:21:00,62.3,45.4,29.92,SW,225,2.5,2.5,54,0.00,,,0.00,WUHU216HW,2013-06-22 05:21:00,
2013-06-21 22:26:00,61.9,45.0,29.92,SSW,203,2.0,2.5,54,0.00,,,0.00,WUHU216HW,2013-06-22 05:26:00,
2013-06-21 22:31:00,61.6,45.2,29.92,WSW,248,1.3,2.7,55,0.00,,,0.00,WUHU216HW,2013-06-22 05:31:00,
2013-06-21 22:36:00,61.4,45.6,29.92,SW,225,1.3,2.7,56,0.00,,,0.00,WUHU216HW,2013-06-22 05:36:00,
2013-06-21 22:41:00,61.0,46.6,29.92,SSW,203,2.9,4.3,59,0.00,,,0.00,WUHU216HW,2013-06-22 05:41:00,
2013-06-21 22:46:00,60.8,45.6,29.91,SW,225,2.2,4.3,57,0.00,,,0.00,WUHU216HW,2013-06-22 05:46:00,
2013-06-21 22:51:00,60.7,44.8,29.92,SW,225,1.1,3.8,56,0.00,,,0.00,WUHU216HW,2013-06-22 05:51:00,
2013-06-21 22:56:00,60.5,45.6,29.91,SW,225,2.5,3.8,58,0.00,,,0.00,WUHU216HW,2013-06-22 05:56:00,
2013-06-21 23:01:00,60.1,45.3,29.92,West,270,2.2,3.6,58,0.00,,,0.00,WUHU216HW,2013-06-22 06:01:00,
2013-06-21 23:06:00,60.1,45.3,29.92,WSW,248,1.8,3.6,58,0.00,,,0.00,WUHU216HW,2013-06-22 06:06:00,
2013-06-21 23:11:00,59.9,45.1,29.92,WSW,248,4.3,4.3,58,0.00,,,0.00,WUHU216HW,2013-06-22 06:11:00,
2013-06-21 23:16:00,59.8,44.9,29.92,WSW,248,1.1,4.3,58,0.00,,,0.00,WUHU216HW,2013-06-22 06:16:00,
2013-06-21 23:21:00,59.8,45.5,29.92,WSW,248,2.2,3.6,59,0.00,,,0.00,WUHU216HW,2013-06-22 06:21:00,
2013-06-21 23:26:00,59.6,45.3,29.92,SSW,203,2.2,3.4,59,0.00,,,0.00,WUHU216HW,2013-06-22 06:26:00,
2013-06-21 23:31:00,59.4,45.1,29.92,West,270,2.5,4.0,59,0.00,,,0.00,WUHU216HW,2013-06-22 06:31:00,
2013-06-21 23:36:00,59.2,44.9,29.92,WSW,248,1.6,4.0,59,0.00,,,0.00,WUHU216HW,2013-06-22 06:36:00,
2013-06-21 23:41:00,59.0,45.2,29.92,WSW,248,1.8,2.9,60,0.00,,,0.00,WUHU216HW,2013-06-22 06:41:00,
2013-06-21 23:46:00,59.0,44.3,29.92,WSW,248,1.3,2.9,58,0.00,,,0.00,WUHU216HW,2013-06-22 06:46:00,
2013-06-21 23:51:00,58.7,44.4,29.92,WSW,248,1.8,2.0,59,0.00,,,0.00,WUHU216HW,2013-06-22 06:51:00,
2013-06-21 23:56:00,58.7,44.4,29.92,South,180,2.5,3.4,59,0.00,,,0.00,WUHU216HW,2013-06-22 06:56:00,